createdAt,value
2019-01-21T00:01:11.892Z,97.50
2019-01-21T00:06:03.340Z,97.20
2019-01-21T00:10:54.740Z,97.90
2019-01-21T00:15:48.346Z,98.00
2019-01-21T00:20:39.826Z,97.80
2019-01-21T00:25:31.221Z,97.90
2019-01-21T00:30:22.616Z,98.40
2019-01-21T00:35:13.967Z,98.90
2019-01-21T00:40:07.624Z,98.90
2019-01-21T00:44:59.076Z,98.00
2019-01-21T00:54:41.862Z,97.10
2019-01-21T00:59:33.204Z,97.10
2019-01-21T01:04:24.657Z,97.80
2019-01-21T01:09:18.246Z,98.80
2019-01-21T01:14:09.719Z,98.10
2019-01-21T01:19:01.111Z,98.60
2019-01-21T01:23:52.534Z,99.60
2019-01-21T01:28:43.914Z,99.90
2019-01-21T01:33:37.543Z,99.60
2019-01-21T01:38:28.982Z,99.60
2019-01-21T01:43:20.612Z,99.90
2019-01-21T01:48:11.833Z,98.30
2019-01-21T01:53:03.241Z,99.60
2019-01-21T01:57:54.541Z,98.50
2019-01-21T02:02:46.088Z,98.60
2019-01-21T02:07:37.368Z,98.30
2019-01-21T02:12:31.008Z,96.40
2019-01-21T02:17:22.468Z,97.40
2019-01-21T02:22:13.904Z,95.40
2019-01-21T02:27:05.259Z,95.60
2019-01-21T02:31:56.674Z,97.40
2019-01-21T02:36:50.258Z,97.20
2019-01-21T02:41:41.786Z,96.70
2019-01-21T02:46:35.306Z,96.70
2019-01-21T02:51:26.775Z,97.30
2019-01-21T02:56:18.259Z,97.20
2019-01-21T03:01:09.601Z,98.00
2019-01-21T03:06:01.027Z,97.80
2019-01-21T03:10:52.406Z,97.10
2019-01-21T03:15:43.834Z,96.90
2019-01-21T03:20:35.237Z,97.30
2019-01-21T03:25:26.632Z,97.40
2019-01-21T03:30:18.135Z,97.20
2019-01-21T03:35:09.525Z,96.90
2019-01-21T03:40:00.808Z,97.00
2019-01-21T03:44:52.232Z,97.00
2019-01-21T03:49:43.691Z,96.50
2019-01-21T03:54:35.225Z,97.40
2019-01-21T03:59:26.592Z,98.00
2019-01-21T04:04:18.027Z,98.10
2019-01-21T04:09:09.365Z,98.20
2019-01-21T04:14:00.904Z,98.60
2019-01-21T04:18:52.292Z,97.80
2019-01-21T04:23:43.713Z,97.70
2019-01-21T04:28:35.188Z,97.10
2019-01-21T04:33:26.509Z,96.60
2019-01-21T04:38:17.986Z,96.20
2019-01-21T04:43:09.327Z,96.30
2019-01-21T04:48:00.790Z,96.30
2019-01-21T04:52:52.150Z,96.40
2019-01-21T04:57:43.587Z,96.50
2019-01-21T05:02:35.498Z,95.80
2019-01-21T05:07:26.363Z,95.30
2019-01-21T05:12:17.768Z,96.10
2019-01-21T05:17:09.227Z,96.40
2019-01-21T05:22:00.810Z,95.60
2019-01-21T05:26:52.006Z,94.50
2019-01-21T05:31:43.518Z,95.00
2019-01-21T05:36:34.844Z,94.30
2019-01-21T05:41:26.219Z,95.30
2019-01-21T05:46:17.589Z,96.00
2019-01-21T05:51:09.028Z,95.10
2019-01-21T05:56:00.462Z,97.70
2019-01-21T06:00:51.873Z,97.30
2019-01-21T06:05:43.254Z,97.20
2019-01-21T06:10:34.688Z,97.10
2019-01-21T06:15:26.080Z,97.10
2019-01-21T06:20:17.574Z,97.40
2019-01-21T06:25:08.948Z,98.00
2019-01-21T06:30:00.434Z,97.40
2019-01-21T06:34:51.831Z,96.70
2019-01-21T06:39:45.415Z,93.60
2019-01-21T06:44:36.896Z,94.10
2019-01-21T06:49:28.321Z,94.20
2019-01-21T06:54:19.779Z,94.20
2019-01-21T06:59:11.166Z,94.40
2019-01-21T07:04:02.663Z,95.60
2019-01-21T07:08:54.059Z,96.00
2019-01-21T07:13:45.568Z,94.70
2019-01-21T07:18:37.077Z,94.10
2019-01-21T07:23:28.317Z,93.70
2019-01-21T07:28:19.724Z,94.30
2019-01-21T07:33:11.147Z,94.20
2019-01-21T07:38:02.538Z,93.30
2019-01-21T07:42:53.995Z,93.20
2019-01-21T07:47:45.322Z,93.30
2019-01-21T07:52:36.874Z,93.80
2019-01-21T07:57:28.169Z,93.40
2019-01-21T08:02:19.584Z,93.20
2019-01-21T08:07:11.042Z,93.30
2019-01-21T08:12:02.488Z,92.70
2019-01-21T08:16:53.731Z,93.30
2019-01-21T08:21:45.211Z,92.30
2019-01-21T08:26:36.655Z,91.60
2019-01-21T08:31:28.060Z,91.30
2019-01-21T08:36:19.450Z,92.00
2019-01-21T08:41:10.837Z,91.10
2019-01-21T08:46:02.276Z,91.50
2019-01-21T08:50:53.702Z,92.30
2019-01-21T08:55:45.079Z,90.40
2019-01-21T09:00:36.526Z,89.80
2019-01-21T09:05:28.367Z,90.50
2019-01-21T09:10:19.563Z,89.90
2019-01-21T09:15:10.736Z,88.80
2019-01-21T09:20:02.152Z,88.90
2019-01-21T09:24:53.551Z,88.40
2019-01-21T09:29:44.976Z,88.00
2019-01-21T09:34:36.343Z,87.70
2019-01-21T09:39:27.726Z,86.20
2019-01-21T09:44:19.130Z,86.50
2019-01-21T09:54:04.363Z,81.20
2019-01-21T09:58:55.727Z,83.30
2019-01-21T10:03:47.155Z,83.00
2019-01-21T10:08:39.111Z,80.90
2019-01-21T10:13:31.037Z,83.90
2019-01-21T10:18:21.360Z,83.90
2019-01-21T10:23:14.875Z,79.20
2019-01-21T10:28:06.390Z,76.20
2019-01-21T10:32:57.768Z,77.30
2019-01-21T10:37:49.120Z,75.60
2019-01-21T10:42:40.536Z,74.70
2019-01-21T10:47:32.009Z,72.90
2019-01-21T10:52:23.339Z,70.10
2019-01-21T10:57:14.660Z,70.80
2019-01-21T11:02:06.070Z,72.20
2019-01-21T11:06:57.548Z,73.20
2019-01-21T11:11:54.530Z,71.10
2019-01-21T11:16:40.420Z,71.00
2019-01-21T11:21:31.742Z,70.70
2019-01-21T11:26:23.256Z,69.30
2019-01-21T11:36:06.019Z,61.10
2019-01-21T11:40:57.312Z,59.70
2019-01-21T12:10:05.684Z,53.00
2019-01-21T12:14:57.124Z,53.00
2019-01-21T12:39:18.570Z,58.00
2019-01-21T12:44:10.005Z,57.30
2019-01-21T12:49:01.343Z,61.20
2019-01-21T12:53:52.807Z,62.30
2019-01-21T13:03:35.591Z,63.10
2019-01-21T13:08:26.902Z,59.80
2019-01-21T13:18:09.693Z,60.60
2019-01-21T13:23:01.237Z,54.10
2019-01-21T13:27:52.518Z,54.20
2019-01-21T13:42:26.780Z,53.90
2019-01-21T13:52:09.471Z,51.20
2019-01-21T13:57:03.119Z,54.00
2019-01-21T14:01:54.608Z,53.10
2019-01-21T14:16:28.728Z,57.10
2019-01-21T14:26:11.492Z,57.00
2019-01-21T14:31:02.994Z,58.10
2019-01-21T14:35:54.330Z,56.50
2019-01-21T14:55:22.229Z,56.60
2019-01-21T15:05:05.182Z,58.60
2019-01-21T15:09:56.745Z,58.60
2019-01-21T15:24:30.676Z,62.10
2019-01-21T15:29:22.010Z,62.00
2019-01-21T15:34:13.438Z,64.30
2019-01-21T15:39:05.436Z,68.30
2019-01-21T15:43:56.178Z,71.00
2019-01-21T15:53:39.034Z,72.20
2019-01-21T15:58:30.718Z,76.50
2019-01-21T16:03:21.960Z,77.40
2019-01-21T16:08:13.349Z,79.20
2019-01-21T16:13:04.748Z,81.50
2019-01-21T16:17:56.147Z,84.50
2019-01-21T16:22:47.512Z,87.40
2019-01-21T16:27:38.920Z,88.10
2019-01-21T16:32:30.334Z,89.10
2019-01-21T16:37:21.809Z,90.00
2019-01-21T16:42:13.143Z,90.70
2019-01-21T16:47:04.683Z,91.10
2019-01-21T16:51:56.003Z,91.60
2019-01-21T16:56:47.461Z,91.90
2019-01-21T17:01:38.888Z,92.10
2019-01-21T17:06:30.274Z,92.30
2019-01-21T17:11:21.771Z,93.00
2019-01-21T17:16:13.237Z,93.60
2019-01-21T17:21:04.607Z,93.00
2019-01-21T17:25:56.106Z,93.70
2019-01-21T17:30:47.339Z,94.60
2019-01-21T17:35:39.181Z,96.90
2019-01-21T17:40:30.168Z,96.70
2019-01-21T17:45:21.650Z,96.50
2019-01-21T17:50:12.964Z,96.20
2019-01-21T17:55:04.459Z,95.60
2019-01-21T17:59:55.735Z,95.10
2019-01-21T18:04:47.264Z,94.50
2019-01-21T18:09:38.629Z,93.70
2019-01-21T18:14:30.151Z,94.80
2019-01-21T18:19:21.451Z,94.40
2019-01-21T18:24:12.937Z,95.40
2019-01-21T18:29:04.366Z,95.00
2019-01-21T18:33:55.834Z,96.00
2019-01-21T18:38:47.092Z,95.50
2019-01-21T18:43:38.681Z,95.50
2019-01-21T18:48:29.996Z,95.30
2019-01-21T18:53:21.356Z,96.70
2019-01-21T18:58:12.804Z,97.80
2019-01-21T19:03:04.198Z,99.10
2019-01-21T19:07:55.571Z,99.90
2019-01-21T19:12:47.026Z,99.60
2019-01-21T19:17:38.421Z,99.90
2019-01-21T19:22:29.848Z,99.90
2019-01-21T19:32:12.594Z,98.60
2019-01-21T19:37:03.977Z,97.60
2019-01-21T19:41:57.675Z,97.30
2019-01-21T19:46:49.129Z,97.20
2019-01-21T19:51:40.571Z,97.40
2019-01-21T19:56:31.933Z,97.20
2019-01-21T20:01:23.313Z,97.10
2019-01-21T20:06:14.837Z,96.30
2019-01-21T20:11:06.229Z,97.20
2019-01-21T20:15:57.553Z,96.80
2019-01-21T20:45:06.004Z,96.60
2019-01-21T20:49:57.496Z,96.00
2019-01-21T21:14:16.770Z,96.00
2019-01-21T21:19:08.288Z,95.30
2019-01-21T21:23:59.685Z,94.80
2019-01-21T21:28:51.268Z,95.00
2019-01-21T21:48:16.918Z,94.60
2019-01-21T21:53:08.215Z,94.10
2019-01-21T21:57:59.653Z,93.90
2019-01-21T22:02:51.132Z,90.70
2019-01-21T22:07:42.621Z,94.90
2019-01-21T22:12:34.233Z,97.10
2019-01-21T22:17:25.437Z,96.10
2019-01-21T22:22:16.739Z,95.10
2019-01-21T22:27:08.275Z,95.80
2019-01-21T22:31:59.528Z,95.10
2019-01-21T22:36:53.181Z,92.70
2019-01-21T22:41:44.624Z,92.60
2019-01-21T22:46:36.605Z,93.60
2019-01-21T22:51:27.466Z,97.40
2019-01-21T22:56:18.826Z,97.50
2019-01-21T23:01:10.211Z,97.10
2019-01-21T23:06:01.615Z,97.30
2019-01-21T23:10:53.153Z,97.30
2019-01-21T23:15:44.458Z,98.50
2019-01-21T23:20:36.533Z,97.80
2019-01-21T23:25:27.337Z,97.50
2019-01-21T23:30:18.689Z,96.00
2019-01-21T23:35:10.143Z,97.70
2019-01-21T23:40:01.630Z,97.30
2019-01-21T23:44:52.997Z,95.80
2019-01-21T23:49:44.371Z,94.70
2019-01-21T23:54:35.688Z,95.30
2019-01-21T23:59:27.272Z,94.90
